Time;durP1;ratioP1;P1;durP2;ratioP2;P2;SDS_P1;SDS_P2;PMS_P1;PMS_P2;Temp;Humidity;BMP_temperature;BMP_pressure;BME280_temperature;BME280_humidity;BME280_pressure;Samples;Min_cycle;Max_cycle;Signal;HPM_P1;HPM_P2
2022/07/18 00:00:09;;;;;;;;;;;;;;;20.93;42.36;100562.00;1088453;54;19934;-82
2022/07/18 00:01:10;;;;;;;;;;;;;;;20.94;41.11;100567.25;1089790;39;20580;-82
2022/07/18 00:02:14;;;;;;;;;;;;;;;20.87;41.72;100563.66;1091713;31;20618;-81
2022/07/18 00:03:15;;;;;;;;;;;;;;;20.88;41.67;100566.16;1088363;54;19942;-83
2022/07/18 00:04:19;;;;;;;;;;;;;;;20.90;41.03;100568.66;1088433;54;20247;-82
2022/07/18 00:05:20;;;;;;;;;;;;;;;20.87;41.73;100560.94;1088470;54;19927;-82
2022/07/18 00:06:24;;;;;;;;;;;;;;;20.89;41.83;100564.28;1088447;54;19989;-83
2022/07/18 00:07:25;;;;;;;;;;;;;;;20.91;41.60;100562.19;1088442;54;19943;-82
2022/07/18 00:08:29;;;;;;;;;;;;;;;20.91;40.79;100562.19;1089365;39;20540;-83
2022/07/18 00:09:32;;;;;;;;;;;;;;;20.92;40.89;100561.16;1088429;54;19958;-82
2022/07/18 00:10:36;;;;;;;;;;;;;;;20.93;41.13;100562.84;1088490;54;20642;-82
2022/07/18 00:11:37;;;;;;;;;;;;;;;20.91;40.89;100564.91;1088495;54;20018;-83
2022/07/18 00:12:41;;;;;;;;;;;;;;;20.90;40.94;100556.97;1088463;54;19988;-84
2022/07/18 00:13:42;;;;;;;;;;;;;;;20.90;40.54;100560.50;1088417;54;19933;-84
2022/07/18 00:14:46;;;;;;;;;;;;;;;20.85;40.42;100558.41;1088420;54;19949;-83
2022/07/18 00:15:47;;;;;;;;;;;;;;;20.82;40.43;100552.53;1092359;39;20588;-84
2022/07/18 00:16:51;;;;;;;;;;;;;;;20.81;40.40;100561.72;1088454;54;19934;-82
2022/07/18 00:17:53;;;;;;;;;;;;;;;20.82;40.45;100552.53;1088103;54;19966;-84
2022/07/18 19:25:54;;;;;;;;;;;;;;;31.62;21.36;100115.91;1085532;39;21269;-80
2022/07/18 19:26:58;;;;;;;;;;;;;;;31.58;21.34;100115.66;1087239;54;20101;-81
2022/07/18 19:27:59;;;;;;;;;;;;;;;31.55;21.24;100121.72;1086575;54;19970;-81
2022/07/18 19:29:03;;;;;;;;;;;;;;;31.52;21.37;100108.50;1087310;46;19942;-80
2022/07/18 19:30:06;;;;;;;;;;;;;;;31.52;21.40;100113.19;1086575;54;19957;-81
2022/07/18 19:31:10;;;;;;;;;;;;;;;31.46;21.66;100117.09;1086698;54;20001;-81
2022/07/18 19:32:11;;;;;;;;;;;;;;;31.42;21.80;100112.13;1086502;54;19946;-81
2022/07/18 19:33:15;;;;;;;;;;;;;;;31.39;22.04;100118.22;1087754;46;19962;-80
2022/07/18 19:34:18;;;;;;;;;;;;;;;31.35;22.12;100121.84;1086671;54;19954;-82
2022/07/18 19:35:20;;;;;;;;;;;;;;;31.29;22.02;100121.03;1086584;54;19950;-82
2022/07/18 19:36:24;;;;;;;;;;;;;;;31.24;22.40;100126.56;1086827;54;19954;-81
2022/07/18 19:37:25;;;;;;;;;;;;;;;31.19;22.63;100124.63;1086809;46;19973;-81
2022/07/18 19:38:29;;;;;;;;;;;;;;;31.10;22.64;100116.13;1083438;54;19989;-79
2022/07/18 19:39:30;;;;;;;;;;;;;;;31.03;22.71;100126.59;1083377;54;19938;-81
2022/07/18 19:40:34;;;;;;;;;;;;;;;31.01;22.61;100128.81;1083275;54;19954;-80
2022/07/18 19:41:41;;;;;;;;;;;;;;;30.95;22.81;100125.25;1083077;54;19951;-81
2022/07/18 19:42:45;;;;;;;;;;;;;;;30.93;22.64;100127.44;1083042;54;19946;-80
2022/07/18 19:43:46;;;;;;;;;;;;;;;30.88;22.77;100124.72;1083462;54;19970;-81
2022/07/18 19:44:50;;;;;;;;;;;;;;;30.85;23.12;100124.41;1083970;39;20451;-80
2022/07/18 19:45:51;;;;;;;;;;;;;;;30.80;22.92;100119.72;1083406;54;19951;-81
2022/07/18 19:46:55;;;;;;;;;;;;;;;30.75;23.16;100130.78;1083667;54;19969;-80
2022/07/18 19:47:57;;;;;;;;;;;;;;;30.70;23.31;100123.34;1083907;54;19985;-81
2022/07/18 19:49:01;;;;;;;;;;;;;;;30.66;23.08;100125.00;1084128;54;19946;-81
2022/07/18 19:50:02;;;;;;;;;;;;;;;30.61;23.52;100128.59;1084259;39;20372;-80
2022/07/18 19:51:07;;;;;;;;;;;;;;;30.60;23.21;100128.88;1084041;54;19962;-81
2022/07/18 19:52:08;;;;;;;;;;;;;;;30.58;23.49;100129.16;1084011;54;19946;-82
2022/07/18 19:53:12;;;;;;;;;;;;;;;30.55;23.50;100126.94;1084333;54;20427;-80
2022/07/18 19:54:13;;;;;;;;;;;;;;;30.50;23.73;100136.00;1083925;54;19946;-80
2022/07/18 19:55:17;;;;;;;;;;;;;;;30.45;24.26;100137.94;1084258;39;20360;-81
2022/07/18 19:56:21;;;;;;;;;;;;;;;30.38;24.54;100138.22;1084047;54;20029;-81
2022/07/18 19:57:24;;;;;;;;;;;;;;;30.36;24.17;100134.94;1084328;54;19950;-81
2022/07/18 19:58:28;;;;;;;;;;;;;;;30.32;24.07;100133.81;1085059;46;19943;-80
2022/07/18 19:59:29;;;;;;;;;;;;;;;30.28;24.85;100136.28;1084904;54;19951;-80
2022/07/18 20:00:34;;;;;;;;;;;;;;;30.25;24.29;100134.06;1085218;39;20328;-81
2022/07/18 20:01:38;;;;;;;;;;;;;;;30.23;24.22;100133.50;1083759;54;19938;-81
2022/07/18 20:02:39;;;;;;;;;;;;;;;30.18;24.58;100137.09;1083197;54;19939;-80
2022/07/18 20:03:43;;;;;;;;;;;;;;;30.14;24.36;100135.16;1083578;54;19954;-82
2022/07/18 20:04:44;;;;;;;;;;;;;;;30.09;24.80;100137.91;1083815;54;19947;-81
2022/07/18 20:05:48;;;;;;;;;;;;;;;30.00;25.14;100141.22;1083739;54;19994;-79
2022/07/18 20:06:49;;;;;;;;;;;;;;;29.94;25.37;100141.47;1084400;39;20361;-80
2022/07/18 20:07:54;;;;;;;;;;;;;;;29.90;24.90;100138.41;1084385;54;19946;-81
2022/07/18 20:08:55;;;;;;;;;;;;;;;29.85;24.91;100141.97;1084443;46;20421;-79
2022/07/18 20:09:59;;;;;;;;;;;;;;;29.77;25.30;100144.41;1084282;54;19950;-80
2022/07/18 20:11:00;;;;;;;;;;;;;;;29.70;25.90;100140.00;1084292;54;19961;-79
2022/07/18 20:12:04;;;;;;;;;;;;;;;29.65;25.45;100142.75;1084163;54;19947;-79
2022/07/18 20:13:08;;;;;;;;;;;;;;;29.64;25.49;100141.09;1084340;54;19947;-80
2022/07/18 20:14:12;;;;;;;;;;;;;;;29.61;25.51;100144.38;1084014;54;19946;-79
2022/07/18 20:15:13;;;;;;;;;;;;;;;29.60;25.45;100145.47;1084207;54;19946;-81
2022/07/18 20:16:17;;;;;;;;;;;;;;;29.57;25.56;100146.00;1084217;54;20491;-79
2022/07/18 20:17:18;;;;;;;;;;;;;;;29.53;25.84;100142.16;1083898;54;19942;-80
2022/07/18 20:18:22;;;;;;;;;;;;;;;29.47;25.71;100135.78;1083925;54;19947;-80
2022/07/18 20:19:26;;;;;;;;;;;;;;;29.46;26.04;100138.81;1084009;54;20519;-80
2022/07/18 20:20:27;;;;;;;;;;;;;;;29.41;26.08;100145.94;1083423;54;19939;-81
2022/07/18 20:21:31;;;;;;;;;;;;;;;29.35;26.21;100144.28;1083767;46;19947;-80
2022/07/18 20:22:32;;;;;;;;;;;;;;;29.31;26.53;100145.84;1083858;54;19946;-77
2022/07/18 20:23:36;;;;;;;;;;;;;;;29.26;26.54;100146.66;1083923;54;19950;-80
2022/07/18 20:24:37;;;;;;;;;;;;;;;29.21;26.72;100154.06;1083925;54;20065;-80
2022/07/18 20:25:41;;;;;;;;;;;;;;;29.16;26.98;100151.28;1083960;54;20451;-79
2022/07/18 20:26:42;;;;;;;;;;;;;;;29.11;27.13;100147.41;1084008;54;20042;-80
2022/07/18 20:27:46;;;;;;;;;;;;;;;29.06;26.88;100147.38;1084212;54;19946;-80
2022/07/18 20:28:49;;;;;;;;;;;;;;;29.03;26.93;100147.09;1083930;54;19954;-81
2022/07/18 20:29:53;;;;;;;;;;;;;;;29.00;27.05;100153.94;1083889;54;19945;-79
2022/07/18 20:30:54;;;;;;;;;;;;;;;28.91;27.67;100150.03;1084266;54;19947;-79
2022/07/18 20:31:58;;;;;;;;;;;;;;;28.86;27.71;100155.50;1084228;54;19946;-80
2022/07/18 20:32:59;;;;;;;;;;;;;;;28.77;27.19;100150.50;1084047;54;19947;-82
2022/07/18 20:34:03;;;;;;;;;;;;;;;28.76;27.14;100151.59;1084841;31;20357;-80
2022/07/18 20:35:04;;;;;;;;;;;;;;;28.73;27.07;100145.78;1084227;54;19969;-80
2022/07/18 20:36:08;;;;;;;;;;;;;;;28.70;27.07;100146.28;1084299;54;19939;-80
2022/07/18 20:37:09;;;;;;;;;;;;;;;28.64;26.88;100149.00;1084721;54;19970;-80
2022/07/18 20:38:13;;;;;;;;;;;;;;;28.60;27.15;100144.28;1085987;54;19958;-80
2022/07/18 20:39:14;;;;;;;;;;;;;;;28.60;26.73;100141.53;1085999;54;19981;-83
2022/07/18 20:40:18;;;;;;;;;;;;;;;28.56;27.37;100154.13;1085832;54;19946;-82
2022/07/18 20:41:21;;;;;;;;;;;;;;;28.56;27.29;100144.00;1086505;54;19942;-82
2022/07/18 20:42:25;;;;;;;;;;;;;;;28.58;27.11;100146.47;1087382;54;19985;-81
2022/07/18 20:43:26;;;;;;;;;;;;;;;28.58;27.08;100138.22;1087868;47;19946;-82
2022/07/18 20:44:32;;;;;;;;;;;;;;;28.56;27.34;100154.13;1087631;54;19985;-82
2022/07/18 20:45:34;;;;;;;;;;;;;;;28.52;27.75;100155.78;1087823;54;19965;-83
2022/07/18 20:46:38;;;;;;;;;;;;;;;28.49;27.59;100151.59;1088986;46;20506;-81
2022/07/18 20:47:39;;;;;;;;;;;;;;;28.47;27.28;100146.38;1087643;54;19934;-82
2022/07/18 20:48:43;;;;;;;;;;;;;;;28.51;27.38;100151.38;1087573;54;19954;-81
2022/07/18 20:49:44;;;;;;;;;;;;;;;28.40;29.24;100158.66;1087359;54;19950;-80
2022/07/18 20:50:48;;;;;;;;;;;;;;;28.23;30.27;100150.56;1084723;39;20305;-80
2022/07/18 20:51:49;;;;;;;;;;;;;;;28.06;31.54;100145.13;1084500;54;19970;-80
2022/07/18 20:52:53;;;;;;;;;;;;;;;27.83;31.91;100152.56;1084937;46;19978;-81
2022/07/18 20:53:57;;;;;;;;;;;;;;;27.67;32.31;100157.91;1084929;39;20345;-80
2022/07/18 20:54:58;;;;;;;;;;;;;;;27.61;32.69;100155.34;1084083;54;19947;-80
2022/07/18 20:56:02;;;;;;;;;;;;;;;27.45;32.70;100160.66;1084431;46;19954;-82
2022/07/18 20:57:08;;;;;;;;;;;;;;;27.43;33.39;100159.22;1084068;46;19947;-81
2022/07/18 20:58:12;;;;;;;;;;;;;;;27.35;33.15;100150.31;1083511;54;19947;-80
2022/07/18 20:59:13;;;;;;;;;;;;;;;27.25;33.94;100151.03;1083574;54;20550;-81
2022/07/18 21:00:21;;;;;;;;;;;;;;;27.25;33.21;100156.50;1083712;54;20019;-80
2022/07/18 21:01:22;;;;;;;;;;;;;;;27.22;32.96;100148.78;1083754;54;19951;-80
2022/07/18 21:02:26;;;;;;;;;;;;;;;27.16;33.30;100148.97;1084122;54;19962;-79
2022/07/18 21:03:27;;;;;;;;;;;;;;;27.19;33.34;100156.69;1084333;54;19950;-81
2022/07/18 21:04:31;;;;;;;;;;;;;;;27.23;33.02;100152.38;1084365;54;19947;-81
2022/07/18 21:06:54;;;;;;;;;;;;;;;27.13;32.92;100154.97;1084712;39;20634;-82
2022/07/18 21:07:55;;;;;;;;;;;;;;;27.05;33.22;100150.72;1084343;54;19950;-80
2022/07/18 21:08:59;;;;;;;;;;;;;;;26.97;33.35;100156.66;1084510;54;20436;-80
2022/07/18 21:10:00;;;;;;;;;;;;;;;26.89;33.20;100155.16;1084791;54;20602;-81
2022/07/18 21:11:04;;;;;;;;;;;;;;;26.87;33.22;100158.16;1084296;54;19946;-81
2022/07/18 21:12:05;;;;;;;;;;;;;;;26.85;33.66;100149.34;1084139;39;20036;-79
2022/07/18 21:13:09;;;;;;;;;;;;;;;26.80;33.46;100153.91;1083495;54;19947;-80
2022/07/18 21:15:36;;;;;;;;;;;;;;;26.65;33.98;100151.72;1083221;54;19954;-81
2022/07/18 21:16:37;;;;;;;;;;;;;;;26.66;33.75;100158.88;1084222;54;19951;-80
2022/07/18 21:17:42;;;;;;;;;;;;;;;26.59;34.23;100154.41;1083625;39;20363;-80
2022/07/18 21:18:46;;;;;;;;;;;;;;;26.56;34.47;100148.59;1083157;54;19946;-79
2022/07/18 21:19:47;;;;;;;;;;;;;;;26.49;34.17;100154.22;1083866;54;20050;-79
2022/07/18 21:20:51;;;;;;;;;;;;;;;26.45;34.97;100162.13;1083588;54;19963;-78
2022/07/18 21:21:52;;;;;;;;;;;;;;;26.44;34.64;100154.16;1083143;54;19954;-79
2022/07/18 21:22:57;;;;;;;;;;;;;;;26.37;34.91;100156.19;1083093;54;19947;-78
2022/07/18 21:23:58;;;;;;;;;;;;;;;26.31;35.16;100160.75;1082894;54;20037;-79
2022/07/18 21:25:01;;;;;;;;;;;;;;;26.29;35.32;100154.72;1083618;54;19992;-80
2022/07/18 21:26:03;;;;;;;;;;;;;;;26.25;35.20;100159.84;1083640;54;19969;-81
2022/07/18 21:27:07;;;;;;;;;;;;;;;26.17;35.11;100160.22;1083945;54;19947;-80
2022/07/18 21:28:10;;;;;;;;;;;;;;;26.12;35.39;100166.44;1084420;39;20435;-79
2022/07/18 21:29:12;;;;;;;;;;;;;;;26.09;35.41;100164.22;1084179;54;19946;-80
2022/07/18 21:30:18;;;;;;;;;;;;;;;26.03;35.78;100164.31;1084103;54;20015;-80
2022/07/18 21:31:21;;;;;;;;;;;;;;;26.01;35.53;100161.84;1084151;54;19951;-82
2022/07/18 21:32:25;;;;;;;;;;;;;;;26.00;35.51;100160.19;1083869;54;19952;-81
2022/07/18 21:33:26;;;;;;;;;;;;;;;25.94;35.83;100161.97;1084130;54;19947;-80
2022/07/18 21:34:30;;;;;;;;;;;;;;;25.88;35.82;100160.22;1084346;39;20372;-81
2022/07/18 21:35:34;;;;;;;;;;;;;;;25.80;36.27;100168.81;1083855;54;20042;-82
2022/07/18 21:36:35;;;;;;;;;;;;;;;25.80;35.97;100171.53;1083898;54;19970;-82
2022/07/18 21:37:39;;;;;;;;;;;;;;;25.75;35.99;100169.53;1084964;39;20395;-83
2022/07/18 21:38:40;;;;;;;;;;;;;;;25.73;36.14;100165.38;1083802;54;19947;-81
2022/07/18 21:39:44;;;;;;;;;;;;;;;25.72;36.36;100169.19;1084553;39;20341;-81
2022/07/18 21:40:48;;;;;;;;;;;;;;;25.69;36.40;100170.50;1083756;54;19947;-81
2022/07/18 21:41:49;;;;;;;;;;;;;;;25.64;36.39;100165.75;1083929;54;19954;-80
2022/07/18 21:42:53;;;;;;;;;;;;;;;25.57;36.50;100165.06;1084245;54;19947;-80
2022/07/18 21:43:54;;;;;;;;;;;;;;;25.65;36.31;100166.59;1083890;54;19946;-80
2022/07/18 21:44:58;;;;;;;;;;;;;;;25.60;36.70;100169.22;1084009;54;19950;-80
2022/07/18 21:46:03;;;;;;;;;;;;;;;25.59;37.02;100171.16;1083834;54;19954;-80
2022/07/18 21:47:09;;;;;;;;;;;;;;;25.57;36.55;100177.91;1084007;54;19946;-80
2022/07/18 21:48:13;;;;;;;;;;;;;;;25.66;36.68;100169.09;1083758;54;19947;-81
2022/07/18 21:49:14;;;;;;;;;;;;;;;25.69;36.53;100168.59;1083754;54;19970;-80
2022/07/18 21:50:18;;;;;;;;;;;;;;;25.73;36.39;100170.84;1083886;54;19946;-81
2022/07/18 21:51:19;;;;;;;;;;;;;;;25.76;36.45;100165.72;1083542;54;19950;-81
2022/07/18 21:52:25;;;;;;;;;;;;;;;25.81;35.75;100168.56;1083792;54;19947;-81
2022/07/18 21:53:26;;;;;;;;;;;;;;;25.83;36.08;100173.81;1083627;54;19953;-80
2022/07/18 21:54:30;;;;;;;;;;;;;;;25.81;35.86;100175.94;1083828;54;19954;-80
2022/07/18 21:55:31;;;;;;;;;;;;;;;25.81;35.70;100174.06;1083574;54;19946;-81
2022/07/18 21:56:35;;;;;;;;;;;;;;;25.90;35.70;100170.94;1083889;54;19947;-81
2022/07/18 21:57:36;;;;;;;;;;;;;;;25.94;35.54;100174.81;1083699;54;20006;-82
2022/07/18 21:58:40;;;;;;;;;;;;;;;25.98;35.69;100178.75;1084293;47;19947;-82
2022/07/18 21:59:41;;;;;;;;;;;;;;;26.00;35.58;100177.44;1083496;54;20069;-79
2022/07/18 22:00:45;;;;;;;;;;;;;;;25.89;36.20;100183.78;1083695;54;19946;-80
2022/07/18 22:01:47;;;;;;;;;;;;;;;25.82;36.53;100180.34;1083750;54;19947;-80
2022/07/18 22:02:53;;;;;;;;;;;;;;;25.71;36.57;100179.31;1083831;54;20061;-82
2022/07/18 22:03:54;;;;;;;;;;;;;;;25.66;36.60;100180.03;1083785;54;19953;-80
2022/07/18 22:04:58;;;;;;;;;;;;;;;25.62;36.64;100184.31;1083794;54;19953;-80
2022/07/18 22:05:59;;;;;;;;;;;;;;;25.62;36.71;100178.03;1083905;39;20372;-80
2022/07/18 22:07:03;;;;;;;;;;;;;;;25.60;37.05;100178.25;1084812;31;20425;-79
2022/07/18 22:08:04;;;;;;;;;;;;;;;25.53;36.94;100185.78;1084327;54;19950;-78
2022/07/18 22:09:08;;;;;;;;;;;;;;;25.46;37.34;100183.16;1084093;54;19938;-79
2022/07/18 22:10:10;;;;;;;;;;;;;;;25.45;37.82;100181.53;1083930;54;20455;-80
2022/07/18 22:11:14;;;;;;;;;;;;;;;25.47;37.57;100184.00;1084350;54;19954;-80
2022/07/18 22:12:15;;;;;;;;;;;;;;;25.43;37.45;100182.81;1084628;54;19958;-80
2022/07/18 22:13:19;;;;;;;;;;;;;;;25.46;37.41;100177.69;1084677;54;19942;-80
2022/07/18 22:14:21;;;;;;;;;;;;;;;25.46;37.17;100166.75;1085049;39;20325;-80
2022/07/18 22:15:27;;;;;;;;;;;;;;;25.46;37.39;100174.13;1084582;54;20007;-80
2022/07/18 22:16:28;;;;;;;;;;;;;;;25.47;37.16;100178.53;1084146;54;19938;-78
2022/07/18 22:17:31;;;;;;;;;;;;;;;25.35;37.85;100182.09;1084619;54;19947;-81
2022/07/18 22:18:35;;;;;;;;;;;;;;;25.17;38.42;100179.47;1084479;54;19958;-79
2022/07/18 22:19:39;;;;;;;;;;;;;;;25.10;39.06;100184.25;1084425;54;19938;-79
2022/07/18 22:20:40;;;;;;;;;;;;;;;25.04;39.03;100181.38;1084083;54;19970;-79
2022/07/18 22:21:44;;;;;;;;;;;;;;;24.90;39.13;100186.25;1083985;47;19954;-79
2022/07/18 22:22:45;;;;;;;;;;;;;;;24.84;39.48;100175.44;1083511;54;20039;-81
2022/07/18 22:23:49;;;;;;;;;;;;;;;24.75;40.07;100183.16;1084509;54;19946;-78
2022/07/18 22:24:52;;;;;;;;;;;;;;;24.69;40.16;100179.47;1084465;54;20046;-79
2022/07/18 22:26:10;;;;;;;;;;;;;;;24.68;40.29;100177.78;1084054;54;19946;-81
2022/07/18 22:27:12;;;;;;;;;;;;;;;24.66;40.22;100179.88;1084581;47;19946;-80
2022/07/18 22:28:15;;;;;;;;;;;;;;;24.61;40.28;100182.50;1083783;54;19939;-80
2022/07/18 22:29:16;;;;;;;;;;;;;;;24.53;40.48;100180.13;1084104;54;19938;-79
2022/07/18 22:30:28;;;;;;;;;;;;;;;24.53;40.32;100180.13;1084172;54;19946;-80
2022/07/18 22:31:29;;;;;;;;;;;;;;;24.40;40.46;100181.97;1084603;54;19939;-79
2022/07/18 22:32:33;;;;;;;;;;;;;;;24.34;40.30;100176.59;1084874;39;20355;-80
2022/07/18 22:33:39;;;;;;;;;;;;;;;24.33;40.43;100181.25;1084616;54;19951;-80
2022/07/18 22:34:40;;;;;;;;;;;;;;;24.28;40.77;100178.38;1084388;54;19946;-79
2022/07/18 22:35:45;;;;;;;;;;;;;;;24.19;40.96;100182.50;1084599;54;19973;-78
2022/07/18 22:36:46;;;;;;;;;;;;;;;24.18;41.12;100178.94;1084730;54;19947;-79
2022/07/18 22:37:50;;;;;;;;;;;;;;;24.16;41.25;100182.97;1084591;54;19950;-79
2022/07/18 22:38:51;;;;;;;;;;;;;;;24.16;41.11;100181.06;1084273;54;19969;-79
2022/07/18 22:39:55;;;;;;;;;;;;;;;24.21;41.03;100178.50;1083952;54;19953;-80
2022/07/18 22:40:57;;;;;;;;;;;;;;;24.20;41.04;100181.44;1084339;54;19998;-80
2022/07/18 22:42:01;;;;;;;;;;;;;;;24.20;41.39;100176.81;1084526;54;20033;-81
2022/07/18 22:43:02;;;;;;;;;;;;;;;24.19;40.97;100179.75;1084957;54;19946;-79
2022/07/18 22:44:06;;;;;;;;;;;;;;;24.24;40.86;100172.53;1085336;39;20351;-81
2022/07/18 22:45:08;;;;;;;;;;;;;;;24.26;41.29;100175.06;1084598;54;19962;-78
2022/07/18 22:46:12;;;;;;;;;;;;;;;24.23;41.53;100172.78;1086649;39;20336;-81
2022/07/18 22:47:13;;;;;;;;;;;;;;;24.14;41.29;100173.13;1085231;54;19950;-79
2022/07/18 22:48:16;;;;;;;;;;;;;;;24.06;41.71;100176.19;1084252;54;19946;-79
2022/07/18 22:49:20;;;;;;;;;;;;;;;24.04;41.99;100175.56;1084582;54;19950;-78
2022/07/18 22:50:24;;;;;;;;;;;;;;;24.05;41.50;100174.50;1086483;54;19945;-78
2022/07/18 22:51:25;;;;;;;;;;;;;;;24.16;41.41;100172.06;1088438;54;19938;-78
2022/07/18 22:52:32;;;;;;;;;;;;;;;24.23;41.22;100164.59;1091495;46;19950;-79
2022/07/18 22:53:33;;;;;;;;;;;;;;;24.29;40.79;100164.50;1088417;54;19994;-80
2022/07/18 22:54:37;;;;;;;;;;;;;;;24.38;40.71;100155.97;1089257;46;19942;-79
2022/07/18 22:55:38;;;;;;;;;;;;;;;24.43;40.50;100169.75;1096092;39;20228;-80
2022/07/18 22:56:42;;;;;;;;;;;;;;;24.48;40.41;100161.69;1088634;46;19989;-80
2022/07/18 22:57:43;;;;;;;;;;;;;;;24.51;40.47;100165.84;1089852;46;19974;-79
2022/07/18 22:58:49;;;;;;;;;;;;;;;24.47;40.23;100160.03;1088405;54;19938;-79
2022/07/18 22:59:50;;;;;;;;;;;;;;;24.31;40.80;100164.25;1089146;46;19947;-80
2022/07/18 23:00:54;;;;;;;;;;;;;;;24.21;40.94;100167.56;1088195;54;19945;-79
2022/07/18 23:01:55;;;;;;;;;;;;;;;24.14;40.82;100162.19;1085929;54;20030;-79
2022/07/18 23:02:59;;;;;;;;;;;;;;;24.16;40.61;100166.59;1084918;54;19947;-80
2022/07/18 23:04:00;;;;;;;;;;;;;;;24.12;40.99;100175.25;1085447;39;20375;-80
2022/07/18 23:05:22;;;;;;;;;;;;;;;24.05;40.94;100169.03;1084742;54;19973;-78
2022/07/18 23:06:27;;;;;;;;;;;;;;;23.95;41.24;100168.75;1084453;47;20463;-79
2022/07/18 23:07:28;;;;;;;;;;;;;;;23.94;41.42;100162.47;1084470;54;20696;-79
2022/07/18 23:08:35;;;;;;;;;;;;;;;23.83;42.42;100165.94;1084448;54;19946;-78
2022/07/18 23:09:36;;;;;;;;;;;;;;;23.80;42.35;100160.94;1084591;54;20447;-79
2022/07/18 23:10:40;;;;;;;;;;;;;;;23.81;42.50;100160.69;1084294;54;19947;-79
2022/07/18 23:11:42;;;;;;;;;;;;;;;23.87;42.27;100160.88;1084343;54;20436;-78
2022/07/18 23:12:45;;;;;;;;;;;;;;;23.88;41.95;100157.88;1084377;54;19947;-80
2022/07/18 23:13:48;;;;;;;;;;;;;;;23.83;42.25;100160.50;1084257;46;20480;-78
2022/07/18 23:14:51;;;;;;;;;;;;;;;23.73;42.99;100163.75;1084051;54;20006;-78
2022/07/18 23:15:53;;;;;;;;;;;;;;;23.58;43.44;100164.13;1083869;54;19954;-78
2022/07/18 23:16:56;;;;;;;;;;;;;;;23.58;43.33;100166.03;1084084;54;19946;-78
2022/07/18 23:17:58;;;;;;;;;;;;;;;23.61;43.07;100173.78;1084277;54;19969;-78
2022/07/18 23:19:02;;;;;;;;;;;;;;;23.66;43.08;100161.09;1083899;54;19947;-78
2022/07/18 23:20:08;;;;;;;;;;;;;;;23.68;43.30;100163.63;1084348;54;19943;-78
2022/07/18 23:21:12;;;;;;;;;;;;;;;23.76;42.33;100154.25;1084533;54;19946;-78
2022/07/18 23:22:18;;;;;;;;;;;;;;;23.83;42.41;100153.13;1084449;54;19954;-79
2022/07/18 23:23:21;;;;;;;;;;;;;;;23.84;42.61;100156.69;1084522;54;19950;-79
2022/07/18 23:24:23;;;;;;;;;;;;;;;23.91;41.92;100162.06;1084183;54;19947;-77
2022/07/18 23:25:27;;;;;;;;;;;;;;;23.96;41.95;100156.78;1084585;54;19954;-79
2022/07/18 23:26:29;;;;;;;;;;;;;;;23.99;41.93;100159.88;1084031;54;19938;-77
2022/07/18 23:27:32;;;;;;;;;;;;;;;23.83;42.76;100155.03;1084174;54;19969;-77
2022/07/18 23:28:36;;;;;;;;;;;;;;;23.75;43.10;100153.44;1084199;54;19970;-78
2022/07/18 23:29:37;;;;;;;;;;;;;;;23.68;43.20;100160.88;1084248;54;19981;-78
2022/07/18 23:30:41;;;;;;;;;;;;;;;23.65;43.57;100158.59;1084467;54;20034;-77
2022/07/18 23:31:44;;;;;;;;;;;;;;;23.58;43.91;100160.59;1083802;54;19950;-79
2022/07/18 23:32:48;;;;;;;;;;;;;;;23.47;44.25;100160.28;1084280;39;20359;-78
2022/07/18 23:33:55;;;;;;;;;;;;;;;23.36;44.37;100161.03;1084441;54;19973;-77
2022/07/18 23:34:59;;;;;;;;;;;;;;;23.13;45.37;100165.25;1084438;54;19970;-79
2022/07/18 23:36:06;;;;;;;;;;;;;;;22.98;45.47;100164.75;1085882;54;19946;-78
2022/07/18 23:37:09;;;;;;;;;;;;;;;22.78;46.44;100171.22;1085853;54;19935;-78
2022/07/18 23:38:13;;;;;;;;;;;;;;;22.74;46.19;100168.09;1085889;54;19938;-79
2022/07/18 23:39:14;;;;;;;;;;;;;;;22.64;46.23;100170.47;1086523;54;19935;-78
2022/07/18 23:40:18;;;;;;;;;;;;;;;22.61;45.84;100167.38;1085500;54;19947;-78
2022/07/18 23:41:20;;;;;;;;;;;;;;;22.45;45.62;100166.88;1085778;54;19989;-77
2022/07/18 23:42:24;;;;;;;;;;;;;;;22.43;45.43;100166.25;1087582;46;19930;-78
2022/07/18 23:43:28;;;;;;;;;;;;;;;22.37;45.22;100161.66;1090442;46;19953;-78
2022/07/18 23:44:49;;;;;;;;;;;;;;;22.36;45.29;100160.81;1088580;54;20413;-78
2022/07/18 23:45:53;;;;;;;;;;;;;;;22.32;45.58;100167.75;1090946;46;20018;-78
2022/07/18 23:46:54;;;;;;;;;;;;;;;22.30;45.31;100169.88;1089314;46;19927;-80
2022/07/18 23:47:58;;;;;;;;;;;;;;;22.22;45.78;100170.13;1091690;46;20059;-78
2022/07/18 23:48:59;;;;;;;;;;;;;;;22.16;45.69;100168.25;1089072;46;19938;-79
2022/07/18 23:50:05;;;;;;;;;;;;;;;22.06;45.83;100169.56;1084750;54;19946;-78
2022/07/18 23:51:09;;;;;;;;;;;;;;;22.10;45.81;100164.56;1085117;46;19946;-78
2022/07/18 23:52:15;;;;;;;;;;;;;;;22.04;45.77;100166.25;1086056;39;20333;-78
2022/07/18 23:53:21;;;;;;;;;;;;;;;22.00;46.08;100165.00;1085212;54;19947;-79
2022/07/18 23:54:22;;;;;;;;;;;;;;;21.97;45.78;100166.28;1085231;46;20467;-79
2022/07/18 23:55:26;;;;;;;;;;;;;;;21.91;45.98;100169.88;1086501;54;19960;-78
2022/07/18 23:56:27;;;;;;;;;;;;;;;21.93;45.88;100165.03;1085954;54;19950;-78
2022/07/18 23:57:31;;;;;;;;;;;;;;;21.88;46.37;100173.03;1086145;54;20451;-78
2022/07/18 23:58:35;;;;;;;;;;;;;;;21.80;46.58;100160.50;1085055;54;19947;-77
2022/07/18 23:59:37;;;;;;;;;;;;;;;21.80;46.46;100165.13;1086542;54;19946;-79
